sensor_id;sensor_type;location;lat;lon;timestamp;P1;durP1;ratioP1;P2;durP2;ratioP2
68250;SDS011;55066;51.560;4.642;2022-11-20T00:00:04;16.97;;;7.43;;
68250;SDS011;55066;51.560;4.642;2022-11-20T00:02:32;20.23;;;6.85;;
68250;SDS011;55066;51.560;4.642;2022-11-20T00:04:57;20.20;;;6.93;;
68250;SDS011;55066;51.560;4.642;2022-11-20T00:07:23;21.23;;;6.67;;
68250;SDS011;55066;51.560;4.642;2022-11-20T00:09:48;18.63;;;7.63;;
68250;SDS011;55066;51.560;4.642;2022-11-20T00:12:13;16.67;;;7.07;;
68250;SDS011;55066;51.560;4.642;2022-11-20T00:14:39;16.87;;;6.70;;
68250;SDS011;55066;51.560;4.642;2022-11-20T00:17:06;17.45;;;7.75;;
68250;SDS011;55066;51.560;4.642;2022-11-20T00:19:32;18.00;;;7.25;;
68250;SDS011;55066;51.560;4.642;2022-11-20T00:21:57;18.67;;;7.67;;
68250;SDS011;55066;51.560;4.642;2022-11-20T00:24:22;17.83;;;7.60;;
68250;SDS011;55066;51.560;4.642;2022-11-20T00:26:48;16.80;;;7.00;;
68250;SDS011;55066;51.560;4.642;2022-11-20T00:29:14;20.83;;;7.72;;
68250;SDS011;55066;51.560;4.642;2022-11-20T00:31:39;19.23;;;7.63;;
68250;SDS011;55066;51.560;4.642;2022-11-20T00:34:05;18.50;;;7.60;;
68250;SDS011;55066;51.560;4.642;2022-11-20T00:36:32;18.90;;;7.70;;
68250;SDS011;55066;51.560;4.642;2022-11-20T00:38:59;21.08;;;7.40;;
68250;SDS011;55066;51.560;4.642;2022-11-20T00:41:25;19.35;;;7.72;;
68250;SDS011;55066;51.560;4.642;2022-11-20T00:43:51;15.13;;;6.10;;
68250;SDS011;55066;51.560;4.642;2022-11-20T00:46:19;15.55;;;6.72;;
68250;SDS011;55066;51.560;4.642;2022-11-20T00:48:46;17.33;;;7.53;;
68250;SDS011;55066;51.560;4.642;2022-11-20T00:51:13;19.15;;;7.80;;
68250;SDS011;55066;51.560;4.642;2022-11-20T00:53:39;17.43;;;7.03;;
68250;SDS011;55066;51.560;4.642;2022-11-20T00:56:06;16.85;;;6.78;;
68250;SDS011;55066;51.560;4.642;2022-11-20T00:58:35;17.73;;;7.50;;
68250;SDS011;55066;51.560;4.642;2022-11-20T01:01:09;18.02;;;7.72;;
68250;SDS011;55066;51.560;4.642;2022-11-20T01:03:40;18.02;;;7.30;;
68250;SDS011;55066;51.560;4.642;2022-11-20T01:06:11;20.93;;;8.00;;
68250;SDS011;55066;51.560;4.642;2022-11-20T01:08:38;18.83;;;7.57;;
68250;SDS011;55066;51.560;4.642;2022-11-20T01:11:08;16.65;;;7.13;;
68250;SDS011;55066;51.560;4.642;2022-11-20T01:13:35;18.50;;;7.50;;
68250;SDS011;55066;51.560;4.642;2022-11-20T01:16:05;17.53;;;7.13;;
68250;SDS011;55066;51.560;4.642;2022-11-20T01:18:34;17.65;;;7.65;;
68250;SDS011;55066;51.560;4.642;2022-11-20T01:21:06;20.63;;;7.78;;
68250;SDS011;55066;51.560;4.642;2022-11-20T01:23:33;18.85;;;7.03;;
68250;SDS011;55066;51.560;4.642;2022-11-20T01:26:01;16.97;;;6.83;;
68250;SDS011;55066;51.560;4.642;2022-11-20T01:28:31;17.70;;;7.22;;
68250;SDS011;55066;51.560;4.642;2022-11-20T01:30:56;18.80;;;7.13;;
68250;SDS011;55066;51.560;4.642;2022-11-20T01:33:22;18.90;;;7.23;;
68250;SDS011;55066;51.560;4.642;2022-11-20T01:35:48;23.17;;;7.72;;
68250;SDS011;55066;51.560;4.642;2022-11-20T01:38:14;18.70;;;7.80;;
68250;SDS011;55066;51.560;4.642;2022-11-20T01:40:40;17.05;;;6.78;;
68250;SDS011;55066;51.560;4.642;2022-11-20T01:43:18;20.87;;;7.53;;
68250;SDS011;55066;51.560;4.642;2022-11-20T01:46:08;19.80;;;7.50;;
68250;SDS011;55066;51.560;4.642;2022-11-20T01:48:47;19.80;;;7.63;;
68250;SDS011;55066;51.560;4.642;2022-11-20T01:51:45;20.30;;;8.45;;
68250;SDS011;55066;51.560;4.642;2022-11-20T01:54:22;20.05;;;7.90;;
68250;SDS011;55066;51.560;4.642;2022-11-20T01:56:54;16.90;;;6.82;;
68250;SDS011;55066;51.560;4.642;2022-11-20T01:59:22;16.13;;;7.33;;
68250;SDS011;55066;51.560;4.642;2022-11-20T02:01:51;18.60;;;7.32;;
68250;SDS011;55066;51.560;4.642;2022-11-20T02:04:16;19.33;;;7.95;;
68250;SDS011;55066;51.560;4.642;2022-11-20T02:06:55;17.10;;;7.15;;
68250;SDS011;55066;51.560;4.642;2022-11-20T02:09:24;18.67;;;7.50;;
68250;SDS011;55066;51.560;4.642;2022-11-20T02:11:49;18.77;;;7.05;;
68250;SDS011;55066;51.560;4.642;2022-11-20T02:14:15;18.67;;;7.70;;
68250;SDS011;55066;51.560;4.642;2022-11-20T02:16:43;17.47;;;7.33;;
68250;SDS011;55066;51.560;4.642;2022-11-20T02:19:22;19.42;;;7.32;;
68250;SDS011;55066;51.560;4.642;2022-11-20T02:24:41;20.42;;;8.25;;
68250;SDS011;55066;51.560;4.642;2022-11-20T02:27:11;21.33;;;8.13;;
68250;SDS011;55066;51.560;4.642;2022-11-20T02:29:39;20.47;;;7.80;;
68250;SDS011;55066;51.560;4.642;2022-11-20T02:32:21;19.95;;;7.70;;
68250;SDS011;55066;51.560;4.642;2022-11-20T02:34:54;18.50;;;8.05;;
68250;SDS011;55066;51.560;4.642;2022-11-20T02:37:19;18.37;;;7.50;;
68250;SDS011;55066;51.560;4.642;2022-11-20T02:39:47;20.25;;;8.13;;
68250;SDS011;55066;51.560;4.642;2022-11-20T02:42:14;20.05;;;8.20;;
68250;SDS011;55066;51.560;4.642;2022-11-20T02:44:39;18.13;;;7.73;;
68250;SDS011;55066;51.560;4.642;2022-11-20T02:47:05;19.05;;;7.55;;
68250;SDS011;55066;51.560;4.642;2022-11-20T02:49:31;18.60;;;7.30;;
68250;SDS011;55066;51.560;4.642;2022-11-20T02:51:56;18.90;;;8.13;;
68250;SDS011;55066;51.560;4.642;2022-11-20T02:54:22;18.75;;;8.32;;
68250;SDS011;55066;51.560;4.642;2022-11-20T02:56:48;19.10;;;7.27;;
68250;SDS011;55066;51.560;4.642;2022-11-20T02:59:13;20.30;;;8.10;;
68250;SDS011;55066;51.560;4.642;2022-11-20T03:01:38;18.77;;;8.00;;
68250;SDS011;55066;51.560;4.642;2022-11-20T03:04:04;22.40;;;8.27;;
68250;SDS011;55066;51.560;4.642;2022-11-20T03:06:29;24.40;;;7.83;;
68250;SDS011;55066;51.560;4.642;2022-11-20T03:08:55;19.97;;;8.13;;
68250;SDS011;55066;51.560;4.642;2022-11-20T03:11:20;19.10;;;7.90;;
68250;SDS011;55066;51.560;4.642;2022-11-20T03:13:45;19.50;;;8.18;;
68250;SDS011;55066;51.560;4.642;2022-11-20T03:16:12;20.30;;;7.70;;
68250;SDS011;55066;51.560;4.642;2022-11-20T03:18:41;18.60;;;7.75;;
68250;SDS011;55066;51.560;4.642;2022-11-20T03:21:07;18.57;;;7.53;;
68250;SDS011;55066;51.560;4.642;2022-11-20T03:23:34;21.60;;;7.70;;
68250;SDS011;55066;51.560;4.642;2022-11-20T03:26:20;20.73;;;8.20;;
68250;SDS011;55066;51.560;4.642;2022-11-20T03:28:57;19.27;;;8.03;;
68250;SDS011;55066;51.560;4.642;2022-11-20T03:31:28;20.55;;;7.88;;
68250;SDS011;55066;51.560;4.642;2022-11-20T03:33:55;18.67;;;8.23;;
68250;SDS011;55066;51.560;4.642;2022-11-20T03:36:22;19.77;;;8.40;;
68250;SDS011;55066;51.560;4.642;2022-11-20T03:38:47;21.77;;;8.30;;
68250;SDS011;55066;51.560;4.642;2022-11-20T03:41:14;19.40;;;7.82;;
68250;SDS011;55066;51.560;4.642;2022-11-20T03:43:46;20.30;;;8.23;;
68250;SDS011;55066;51.560;4.642;2022-11-20T03:46:14;19.30;;;7.80;;
68250;SDS011;55066;51.560;4.642;2022-11-20T03:48:40;19.90;;;8.20;;
68250;SDS011;55066;51.560;4.642;2022-11-20T03:51:07;21.80;;;7.90;;
68250;SDS011;55066;51.560;4.642;2022-11-20T03:53:40;18.80;;;8.35;;
68250;SDS011;55066;51.560;4.642;2022-11-20T03:56:07;18.88;;;8.35;;
68250;SDS011;55066;51.560;4.642;2022-11-20T03:58:34;17.77;;;7.93;;
68250;SDS011;55066;51.560;4.642;2022-11-20T04:03:40;21.08;;;8.43;;
68250;SDS011;55066;51.560;4.642;2022-11-20T04:06:07;20.35;;;8.20;;
68250;SDS011;55066;51.560;4.642;2022-11-20T04:08:35;24.02;;;8.82;;
68250;SDS011;55066;51.560;4.642;2022-11-20T04:13:38;17.75;;;7.80;;
68250;SDS011;55066;51.560;4.642;2022-11-20T04:16:04;19.98;;;8.73;;
68250;SDS011;55066;51.560;4.642;2022-11-20T04:18:31;19.85;;;8.15;;
68250;SDS011;55066;51.560;4.642;2022-11-20T04:20:57;22.90;;;8.47;;
68250;SDS011;55066;51.560;4.642;2022-11-20T04:23:22;20.67;;;7.82;;
68250;SDS011;55066;51.560;4.642;2022-11-20T04:25:48;20.43;;;8.33;;
68250;SDS011;55066;51.560;4.642;2022-11-20T04:28:13;19.80;;;8.63;;
68250;SDS011;55066;51.560;4.642;2022-11-20T04:30:39;22.17;;;9.10;;
68250;SDS011;55066;51.560;4.642;2022-11-20T04:33:04;21.33;;;8.15;;
68250;SDS011;55066;51.560;4.642;2022-11-20T04:35:29;20.73;;;8.10;;
68250;SDS011;55066;51.560;4.642;2022-11-20T04:37:55;21.00;;;8.30;;
68250;SDS011;55066;51.560;4.642;2022-11-20T04:40:20;23.47;;;9.43;;
68250;SDS011;55066;51.560;4.642;2022-11-20T04:42:45;21.53;;;9.00;;
68250;SDS011;55066;51.560;4.642;2022-11-20T04:45:11;19.90;;;8.33;;
68250;SDS011;55066;51.560;4.642;2022-11-20T04:47:36;20.60;;;8.43;;
68250;SDS011;55066;51.560;4.642;2022-11-20T04:50:02;21.52;;;8.82;;
68250;SDS011;55066;51.560;4.642;2022-11-20T04:52:27;21.47;;;8.30;;
68250;SDS011;55066;51.560;4.642;2022-11-20T04:54:53;19.53;;;8.10;;
68250;SDS011;55066;51.560;4.642;2022-11-20T04:57:18;20.13;;;8.57;;
68250;SDS011;55066;51.560;4.642;2022-11-20T04:59:45;22.03;;;7.90;;
68250;SDS011;55066;51.560;4.642;2022-11-20T05:02:11;18.63;;;8.02;;
68250;SDS011;55066;51.560;4.642;2022-11-20T05:04:36;18.17;;;8.27;;
68250;SDS011;55066;51.560;4.642;2022-11-20T05:07:02;22.63;;;9.20;;
68250;SDS011;55066;51.560;4.642;2022-11-20T05:09:27;17.42;;;7.80;;
68250;SDS011;55066;51.560;4.642;2022-11-20T05:11:53;19.58;;;8.15;;
68250;SDS011;55066;51.560;4.642;2022-11-20T05:14:18;22.37;;;8.57;;
68250;SDS011;55066;51.560;4.642;2022-11-20T05:16:43;20.37;;;8.43;;
68250;SDS011;55066;51.560;4.642;2022-11-20T05:19:09;20.67;;;7.83;;
68250;SDS011;55066;51.560;4.642;2022-11-20T05:21:34;20.40;;;8.23;;
68250;SDS011;55066;51.560;4.642;2022-11-20T05:23:59;20.83;;;8.50;;
68250;SDS011;55066;51.560;4.642;2022-11-20T05:26:25;17.77;;;7.87;;
68250;SDS011;55066;51.560;4.642;2022-11-20T05:28:50;18.17;;;7.75;;
68250;SDS011;55066;51.560;4.642;2022-11-20T05:31:19;19.37;;;7.83;;
68250;SDS011;55066;51.560;4.642;2022-11-20T05:33:46;20.77;;;8.70;;
68250;SDS011;55066;51.560;4.642;2022-11-20T05:36:13;21.17;;;8.27;;
68250;SDS011;55066;51.560;4.642;2022-11-20T05:38:39;21.03;;;8.20;;
68250;SDS011;55066;51.560;4.642;2022-11-20T05:41:06;20.38;;;8.70;;
68250;SDS011;55066;51.560;4.642;2022-11-20T05:43:33;24.20;;;8.85;;
68250;SDS011;55066;51.560;4.642;2022-11-20T05:45:59;19.23;;;8.07;;
68250;SDS011;55066;51.560;4.642;2022-11-20T05:48:25;19.02;;;8.48;;
68250;SDS011;55066;51.560;4.642;2022-11-20T05:50:51;19.20;;;7.97;;
68250;SDS011;55066;51.560;4.642;2022-11-20T05:53:16;19.50;;;8.03;;
68250;SDS011;55066;51.560;4.642;2022-11-20T05:55:42;20.17;;;8.10;;
68250;SDS011;55066;51.560;4.642;2022-11-20T05:58:07;19.17;;;7.97;;
68250;SDS011;55066;51.560;4.642;2022-11-20T06:00:33;22.05;;;8.88;;
68250;SDS011;55066;51.560;4.642;2022-11-20T06:02:58;21.40;;;8.50;;
68250;SDS011;55066;51.560;4.642;2022-11-20T06:05:23;21.23;;;8.20;;
68250;SDS011;55066;51.560;4.642;2022-11-20T06:07:49;21.93;;;8.63;;
68250;SDS011;55066;51.560;4.642;2022-11-20T06:10:14;21.63;;;8.70;;
68250;SDS011;55066;51.560;4.642;2022-11-20T06:12:39;22.03;;;8.63;;
68250;SDS011;55066;51.560;4.642;2022-11-20T06:15:05;22.42;;;8.88;;
68250;SDS011;55066;51.560;4.642;2022-11-20T06:17:31;18.60;;;8.07;;
68250;SDS011;55066;51.560;4.642;2022-11-20T06:19:56;24.30;;;8.53;;
68250;SDS011;55066;51.560;4.642;2022-11-20T06:22:22;21.90;;;8.75;;
68250;SDS011;55066;51.560;4.642;2022-11-20T06:24:47;20.73;;;8.30;;
68250;SDS011;55066;51.560;4.642;2022-11-20T06:27:13;21.00;;;8.57;;
68250;SDS011;55066;51.560;4.642;2022-11-20T06:29:38;20.17;;;8.43;;
68250;SDS011;55066;51.560;4.642;2022-11-20T06:32:03;17.07;;;7.27;;
68250;SDS011;55066;51.560;4.642;2022-11-20T06:34:29;20.77;;;8.37;;
68250;SDS011;55066;51.560;4.642;2022-11-20T06:36:54;21.75;;;8.48;;
68250;SDS011;55066;51.560;4.642;2022-11-20T06:39:19;21.80;;;7.90;;
68250;SDS011;55066;51.560;4.642;2022-11-20T06:41:45;20.23;;;8.17;;
68250;SDS011;55066;51.560;4.642;2022-11-20T06:44:10;21.23;;;8.90;;
68250;SDS011;55066;51.560;4.642;2022-11-20T06:46:36;21.15;;;8.50;;
68250;SDS011;55066;51.560;4.642;2022-11-20T06:49:01;22.40;;;8.93;;
68250;SDS011;55066;51.560;4.642;2022-11-20T06:51:27;19.93;;;8.13;;
68250;SDS011;55066;51.560;4.642;2022-11-20T06:53:53;22.02;;;8.75;;
68250;SDS011;55066;51.560;4.642;2022-11-20T06:56:18;20.27;;;8.33;;
68250;SDS011;55066;51.560;4.642;2022-11-20T06:58:44;23.13;;;8.87;;
68250;SDS011;55066;51.560;4.642;2022-11-20T07:01:11;24.00;;;9.48;;
68250;SDS011;55066;51.560;4.642;2022-11-20T07:03:40;21.07;;;8.40;;
68250;SDS011;55066;51.560;4.642;2022-11-20T07:06:06;22.88;;;8.52;;
68250;SDS011;55066;51.560;4.642;2022-11-20T07:08:33;24.25;;;9.43;;
68250;SDS011;55066;51.560;4.642;2022-11-20T07:11:00;26.25;;;9.75;;
68250;SDS011;55066;51.560;4.642;2022-11-20T07:13:28;23.15;;;9.43;;
68250;SDS011;55066;51.560;4.642;2022-11-20T07:15:54;21.97;;;9.40;;
68250;SDS011;55066;51.560;4.642;2022-11-20T07:18:20;23.40;;;9.20;;
68250;SDS011;55066;51.560;4.642;2022-11-20T07:20:45;24.55;;;9.57;;
68250;SDS011;55066;51.560;4.642;2022-11-20T07:23:11;22.85;;;8.75;;
68250;SDS011;55066;51.560;4.642;2022-11-20T07:25:36;21.97;;;9.00;;
68250;SDS011;55066;51.560;4.642;2022-11-20T07:28:02;23.93;;;9.70;;
68250;SDS011;55066;51.560;4.642;2022-11-20T07:30:27;18.93;;;8.97;;
68250;SDS011;55066;51.560;4.642;2022-11-20T07:32:53;22.27;;;8.70;;
68250;SDS011;55066;51.560;4.642;2022-11-20T07:35:20;24.33;;;9.95;;
68250;SDS011;55066;51.560;4.642;2022-11-20T07:37:46;24.30;;;9.40;;
68250;SDS011;55066;51.560;4.642;2022-11-20T07:40:13;24.90;;;9.60;;
68250;SDS011;55066;51.560;4.642;2022-11-20T07:42:39;25.17;;;9.60;;
68250;SDS011;55066;51.560;4.642;2022-11-20T07:45:12;26.40;;;10.27;;
68250;SDS011;55066;51.560;4.642;2022-11-20T07:47:37;26.07;;;10.83;;
68250;SDS011;55066;51.560;4.642;2022-11-20T07:50:03;27.30;;;11.27;;
68250;SDS011;55066;51.560;4.642;2022-11-20T07:52:29;25.98;;;10.45;;
68250;SDS011;55066;51.560;4.642;2022-11-20T07:54:54;26.02;;;10.82;;
68250;SDS011;55066;51.560;4.642;2022-11-20T07:57:19;26.27;;;10.20;;
68250;SDS011;55066;51.560;4.642;2022-11-20T07:59:45;27.97;;;10.57;;
68250;SDS011;55066;51.560;4.642;2022-11-20T08:02:11;27.77;;;9.88;;
68250;SDS011;55066;51.560;4.642;2022-11-20T08:04:36;26.33;;;9.67;;
68250;SDS011;55066;51.560;4.642;2022-11-20T08:07:01;21.63;;;8.53;;
68250;SDS011;55066;51.560;4.642;2022-11-20T08:09:27;24.83;;;9.87;;
68250;SDS011;55066;51.560;4.642;2022-11-20T08:11:53;28.13;;;10.23;;
68250;SDS011;55066;51.560;4.642;2022-11-20T08:14:46;25.58;;;11.00;;
68250;SDS011;55066;51.560;4.642;2022-11-20T08:17:15;25.50;;;9.90;;
68250;SDS011;55066;51.560;4.642;2022-11-20T08:19:41;27.10;;;11.00;;
68250;SDS011;55066;51.560;4.642;2022-11-20T08:22:06;28.47;;;11.20;;
68250;SDS011;55066;51.560;4.642;2022-11-20T08:24:31;25.27;;;10.07;;
68250;SDS011;55066;51.560;4.642;2022-11-20T08:26:57;21.80;;;9.70;;
68250;SDS011;55066;51.560;4.642;2022-11-20T08:29:24;26.23;;;9.27;;
68250;SDS011;55066;51.560;4.642;2022-11-20T08:31:50;24.67;;;9.57;;
68250;SDS011;55066;51.560;4.642;2022-11-20T08:34:16;26.37;;;9.80;;
68250;SDS011;55066;51.560;4.642;2022-11-20T08:36:41;28.50;;;11.80;;
68250;SDS011;55066;51.560;4.642;2022-11-20T08:39:06;29.63;;;11.10;;
68250;SDS011;55066;51.560;4.642;2022-11-20T08:41:32;26.63;;;10.83;;
68250;SDS011;55066;51.560;4.642;2022-11-20T08:44:05;29.35;;;11.05;;
68250;SDS011;55066;51.560;4.642;2022-11-20T08:46:36;34.08;;;12.60;;
68250;SDS011;55066;51.560;4.642;2022-11-20T08:49:03;34.20;;;12.77;;
68250;SDS011;55066;51.560;4.642;2022-11-20T08:51:30;29.67;;;12.47;;
68250;SDS011;55066;51.560;4.642;2022-11-20T08:53:56;32.05;;;11.13;;
68250;SDS011;55066;51.560;4.642;2022-11-20T08:56:22;35.03;;;13.23;;
68250;SDS011;55066;51.560;4.642;2022-11-20T08:58:49;34.00;;;12.93;;
68250;SDS011;55066;51.560;4.642;2022-11-20T09:01:15;32.13;;;11.63;;
68250;SDS011;55066;51.560;4.642;2022-11-20T09:03:40;35.78;;;13.88;;
68250;SDS011;55066;51.560;4.642;2022-11-20T09:06:06;34.10;;;11.93;;
68250;SDS011;55066;51.560;4.642;2022-11-20T09:08:32;30.80;;;11.20;;
68250;SDS011;55066;51.560;4.642;2022-11-20T09:10:59;46.22;;;15.50;;
68250;SDS011;55066;51.560;4.642;2022-11-20T09:13:26;42.65;;;15.20;;
68250;SDS011;55066;51.560;4.642;2022-11-20T09:15:54;36.55;;;13.95;;
68250;SDS011;55066;51.560;4.642;2022-11-20T09:18:23;41.15;;;15.05;;
68250;SDS011;55066;51.560;4.642;2022-11-20T09:20:50;41.67;;;15.02;;
68250;SDS011;55066;51.560;4.642;2022-11-20T09:23:15;40.10;;;14.90;;
68250;SDS011;55066;51.560;4.642;2022-11-20T09:25:41;40.88;;;14.27;;
68250;SDS011;55066;51.560;4.642;2022-11-20T09:28:07;36.67;;;13.07;;
68250;SDS011;55066;51.560;4.642;2022-11-20T09:30:33;44.35;;;14.95;;
68250;SDS011;55066;51.560;4.642;2022-11-20T09:32:58;41.23;;;15.30;;
68250;SDS011;55066;51.560;4.642;2022-11-20T09:35:24;40.27;;;14.40;;
68250;SDS011;55066;51.560;4.642;2022-11-20T09:37:49;38.25;;;13.45;;
68250;SDS011;55066;51.560;4.642;2022-11-20T09:40:19;39.00;;;12.27;;
68250;SDS011;55066;51.560;4.642;2022-11-20T09:42:57;34.53;;;11.95;;
68250;SDS011;55066;51.560;4.642;2022-11-20T09:45:39;36.87;;;13.90;;
68250;SDS011;55066;51.560;4.642;2022-11-20T09:48:42;36.58;;;12.90;;
68250;SDS011;55066;51.560;4.642;2022-11-20T09:51:39;37.75;;;13.48;;
68250;SDS011;55066;51.560;4.642;2022-11-20T09:54:19;36.58;;;13.65;;
68250;SDS011;55066;51.560;4.642;2022-11-20T09:56:52;40.83;;;13.95;;
68250;SDS011;55066;51.560;4.642;2022-11-20T09:59:29;43.73;;;14.80;;
68250;SDS011;55066;51.560;4.642;2022-11-20T10:01:59;36.42;;;13.15;;
68250;SDS011;55066;51.560;4.642;2022-11-20T10:04:26;40.83;;;14.55;;
68250;SDS011;55066;51.560;4.642;2022-11-20T10:09:33;38.67;;;13.07;;
68250;SDS011;55066;51.560;4.642;2022-11-20T10:14:49;28.05;;;9.00;;
68250;SDS011;55066;51.560;4.642;2022-11-20T10:17:46;32.45;;;12.48;;
68250;SDS011;55066;51.560;4.642;2022-11-20T10:20:22;26.35;;;8.38;;
68250;SDS011;55066;51.560;4.642;2022-11-20T10:26:17;30.10;;;9.83;;
68250;SDS011;55066;51.560;4.642;2022-11-20T10:29:03;32.45;;;10.57;;
68250;SDS011;55066;51.560;4.642;2022-11-20T10:31:36;39.47;;;13.25;;
68250;SDS011;55066;51.560;4.642;2022-11-20T10:34:05;40.22;;;14.05;;
68250;SDS011;55066;51.560;4.642;2022-11-20T10:36:58;38.92;;;14.25;;
68250;SDS011;55066;51.560;4.642;2022-11-20T10:39:54;41.50;;;14.50;;
68250;SDS011;55066;51.560;4.642;2022-11-20T10:47:49;40.75;;;14.50;;
68250;SDS011;55066;51.560;4.642;2022-11-20T10:50:18;41.00;;;14.27;;
68250;SDS011;55066;51.560;4.642;2022-11-20T10:52:55;41.10;;;12.97;;
68250;SDS011;55066;51.560;4.642;2022-11-20T10:55:32;44.63;;;15.18;;
68250;SDS011;55066;51.560;4.642;2022-11-20T11:01:04;44.42;;;14.27;;
68250;SDS011;55066;51.560;4.642;2022-11-20T11:03:40;48.22;;;16.27;;
68250;SDS011;55066;51.560;4.642;2022-11-20T11:09:00;33.65;;;11.48;;
68250;SDS011;55066;51.560;4.642;2022-11-20T11:11:33;47.72;;;15.77;;
68250;SDS011;55066;51.560;4.642;2022-11-20T11:14:06;48.05;;;16.23;;
68250;SDS011;55066;51.560;4.642;2022-11-20T11:16:33;44.70;;;15.50;;
68250;SDS011;55066;51.560;4.642;2022-11-20T11:19:13;35.53;;;11.80;;
68250;SDS011;55066;51.560;4.642;2022-11-20T11:21:45;41.90;;;14.23;;
68250;SDS011;55066;51.560;4.642;2022-11-20T11:24:25;37.88;;;14.50;;
68250;SDS011;55066;51.560;4.642;2022-11-20T11:29:22;39.00;;;14.07;;
68250;SDS011;55066;51.560;4.642;2022-11-20T11:31:49;38.10;;;12.50;;
68250;SDS011;55066;51.560;4.642;2022-11-20T11:34:15;43.97;;;14.33;;
68250;SDS011;55066;51.560;4.642;2022-11-20T11:36:42;47.17;;;15.13;;
68250;SDS011;55066;51.560;4.642;2022-11-20T11:39:18;30.27;;;10.77;;
68250;SDS011;55066;51.560;4.642;2022-11-20T11:41:46;44.97;;;14.23;;
68250;SDS011;55066;51.560;4.642;2022-11-20T11:44:17;39.07;;;12.50;;
68250;SDS011;55066;51.560;4.642;2022-11-20T11:47:03;39.55;;;13.55;;
68250;SDS011;55066;51.560;4.642;2022-11-20T11:49:33;41.70;;;14.43;;
68250;SDS011;55066;51.560;4.642;2022-11-20T11:52:10;43.10;;;15.53;;
68250;SDS011;55066;51.560;4.642;2022-11-20T12:07:48;31.08;;;11.25;;
68250;SDS011;55066;51.560;4.642;2022-11-20T12:12:53;46.27;;;15.40;;
68250;SDS011;55066;51.560;4.642;2022-11-20T12:15:31;50.72;;;16.40;;
68250;SDS011;55066;51.560;4.642;2022-11-20T12:17:59;40.00;;;13.23;;
68250;SDS011;55066;51.560;4.642;2022-11-20T12:20:29;49.55;;;16.20;;
68250;SDS011;55066;51.560;4.642;2022-11-20T12:23:09;48.53;;;15.70;;
68250;SDS011;55066;51.560;4.642;2022-11-20T12:25:43;55.83;;;16.00;;
68250;SDS011;55066;51.560;4.642;2022-11-20T12:28:15;56.78;;;17.55;;
68250;SDS011;55066;51.560;4.642;2022-11-20T12:33:55;55.10;;;15.73;;
68250;SDS011;55066;51.560;4.642;2022-11-20T12:39:14;43.87;;;14.03;;
68250;SDS011;55066;51.560;4.642;2022-11-20T12:41:45;42.78;;;12.52;;
68250;SDS011;55066;51.560;4.642;2022-11-20T12:53:04;45.17;;;13.27;;
68250;SDS011;55066;51.560;4.642;2022-11-20T12:56:17;55.92;;;17.63;;
68250;SDS011;55066;51.560;4.642;2022-11-20T13:07:34;51.97;;;16.40;;
68250;SDS011;55066;51.560;4.642;2022-11-20T13:10:00;48.72;;;14.23;;
68250;SDS011;55066;51.560;4.642;2022-11-20T13:15:56;60.55;;;17.08;;
68250;SDS011;55066;51.560;4.642;2022-11-20T13:18:06;48.20;;;14.87;;
68250;SDS011;55066;51.560;4.642;2022-11-20T13:20:34;51.58;;;15.18;;
68250;SDS011;55066;51.560;4.642;2022-11-20T13:23:01;53.17;;;16.92;;
68250;SDS011;55066;51.560;4.642;2022-11-20T13:25:30;52.03;;;15.30;;
68250;SDS011;55066;51.560;4.642;2022-11-20T13:28:01;54.05;;;16.65;;
68250;SDS011;55066;51.560;4.642;2022-11-20T13:30:30;58.55;;;16.30;;
68250;SDS011;55066;51.560;4.642;2022-11-20T13:32:57;52.55;;;16.05;;
68250;SDS011;55066;51.560;4.642;2022-11-20T13:35:37;63.73;;;18.40;;
68250;SDS011;55066;51.560;4.642;2022-11-20T13:38:07;52.53;;;16.00;;
68250;SDS011;55066;51.560;4.642;2022-11-20T13:40:34;53.03;;;14.50;;
68250;SDS011;55066;51.560;4.642;2022-11-20T13:46:06;53.47;;;15.82;;
68250;SDS011;55066;51.560;4.642;2022-11-20T13:54:42;57.17;;;16.98;;
68250;SDS011;55066;51.560;4.642;2022-11-20T13:59:56;58.88;;;17.80;;
68250;SDS011;55066;51.560;4.642;2022-11-20T14:02:25;52.97;;;14.77;;
68250;SDS011;55066;51.560;4.642;2022-11-20T14:04:53;55.58;;;15.98;;
68250;SDS011;55066;51.560;4.642;2022-11-20T14:07:21;58.42;;;15.77;;
68250;SDS011;55066;51.560;4.642;2022-11-20T14:09:51;52.60;;;16.10;;
68250;SDS011;55066;51.560;4.642;2022-11-20T14:12:19;55.83;;;15.85;;
68250;SDS011;55066;51.560;4.642;2022-11-20T14:14:48;49.07;;;13.50;;
68250;SDS011;55066;51.560;4.642;2022-11-20T14:17:23;49.03;;;14.10;;
68250;SDS011;55066;51.560;4.642;2022-11-20T14:19:55;44.30;;;14.15;;
68250;SDS011;55066;51.560;4.642;2022-11-20T14:22:25;47.88;;;13.98;;
68250;SDS011;55066;51.560;4.642;2022-11-20T14:25:18;52.22;;;14.95;;
68250;SDS011;55066;51.560;4.642;2022-11-20T14:27:57;44.50;;;12.67;;
68250;SDS011;55066;51.560;4.642;2022-11-20T14:33:13;42.88;;;12.70;;
68250;SDS011;55066;51.560;4.642;2022-11-20T14:38:16;49.30;;;13.68;;
68250;SDS011;55066;51.560;4.642;2022-11-20T14:40:44;43.90;;;12.98;;
68250;SDS011;55066;51.560;4.642;2022-11-20T14:43:23;48.45;;;13.68;;
68250;SDS011;55066;51.560;4.642;2022-11-20T14:45:57;54.65;;;15.07;;
68250;SDS011;55066;51.560;4.642;2022-11-20T14:48:33;40.20;;;12.93;;
68250;SDS011;55066;51.560;4.642;2022-11-20T14:51:03;40.00;;;12.83;;
68250;SDS011;55066;51.560;4.642;2022-11-20T14:53:28;47.83;;;13.65;;
68250;SDS011;55066;51.560;4.642;2022-11-20T14:55:54;40.53;;;12.47;;
68250;SDS011;55066;51.560;4.642;2022-11-20T14:58:23;44.13;;;12.60;;
68250;SDS011;55066;51.560;4.642;2022-11-20T15:00:57;47.27;;;12.23;;
68250;SDS011;55066;51.560;4.642;2022-11-20T15:03:37;43.20;;;12.50;;
68250;SDS011;55066;51.560;4.642;2022-11-20T15:06:09;43.80;;;13.38;;
68250;SDS011;55066;51.560;4.642;2022-11-20T15:08:37;36.45;;;11.10;;
68250;SDS011;55066;51.560;4.642;2022-11-20T15:11:02;42.63;;;11.97;;
68250;SDS011;55066;51.560;4.642;2022-11-20T15:16:03;32.83;;;10.95;;
68250;SDS011;55066;51.560;4.642;2022-11-20T15:18:37;20.70;;;6.95;;
68250;SDS011;55066;51.560;4.642;2022-11-20T15:21:10;29.13;;;9.20;;
68250;SDS011;55066;51.560;4.642;2022-11-20T15:23:37;27.80;;;9.80;;
68250;SDS011;55066;51.560;4.642;2022-11-20T15:26:06;26.67;;;9.93;;
68250;SDS011;55066;51.560;4.642;2022-11-20T15:28:33;23.75;;;8.40;;
68250;SDS011;55066;51.560;4.642;2022-11-20T15:31:04;21.25;;;7.63;;
68250;SDS011;55066;51.560;4.642;2022-11-20T15:33:31;22.33;;;7.72;;
68250;SDS011;55066;51.560;4.642;2022-11-20T15:35:57;21.92;;;7.25;;
68250;SDS011;55066;51.560;4.642;2022-11-20T15:38:22;18.60;;;7.17;;
68250;SDS011;55066;51.560;4.642;2022-11-20T15:40:48;19.88;;;7.43;;
68250;SDS011;55066;51.560;4.642;2022-11-20T15:43:14;17.13;;;6.90;;
68250;SDS011;55066;51.560;4.642;2022-11-20T15:45:41;16.80;;;7.23;;
68250;SDS011;55066;51.560;4.642;2022-11-20T15:48:31;15.40;;;7.18;;
68250;SDS011;55066;51.560;4.642;2022-11-20T15:53:34;19.85;;;8.82;;
68250;SDS011;55066;51.560;4.642;2022-11-20T15:55:59;20.27;;;8.90;;
68250;SDS011;55066;51.560;4.642;2022-11-20T15:58:25;21.17;;;9.17;;
68250;SDS011;55066;51.560;4.642;2022-11-20T16:00:51;20.20;;;9.98;;
68250;SDS011;55066;51.560;4.642;2022-11-20T16:03:17;23.17;;;10.60;;
68250;SDS011;55066;51.560;4.642;2022-11-20T16:05:43;23.40;;;11.18;;
68250;SDS011;55066;51.560;4.642;2022-11-20T16:08:09;27.00;;;11.57;;
68250;SDS011;55066;51.560;4.642;2022-11-20T16:10:35;24.63;;;11.27;;
68250;SDS011;55066;51.560;4.642;2022-11-20T16:13:00;33.07;;;12.93;;